Time;durP1;ratioP1;P1;durP2;ratioP2;P2;SDS_P1;SDS_P2;PMS_P1;PMS_P2;Temp;Humidity;BMP_temperature;BMP_pressure;BME280_temperature;BME280_humidity;BME280_pressure;Samples;Min_cycle;Max_cycle;Signal;HPM_P1;HPM_P2
2023/04/25 00:01:59;;;;;;;15.20;4.40;;;;;;;5.79;80.54;101366.38;6104024;19;20011;-73
2023/04/25 00:04:05;;;;;;;15.00;4.50;;;;;;;5.78;81.02;101370.72;6104463;19;20010;-73
2023/04/25 00:06:11;;;;;;;18.92;4.38;;;;;;;5.72;80.68;101370.81;6105143;19;20016;-73
2023/04/25 00:08:19;;;;;;;16.08;4.38;;;;;;;5.64;81.25;101372.66;6104715;19;20296;-74
2023/04/25 00:10:24;;;;;;;24.95;4.82;;;;;;;5.59;81.49;101369.22;6103405;19;20042;-73
2023/04/25 00:12:29;;;;;;;16.20;5.80;;;;;;;5.52;81.67;101372.78;6106479;19;20006;-74
2023/04/25 00:14:37;;;;;;;17.60;4.35;;;;;;;5.46;82.08;101373.72;6107608;19;20494;-73
2023/04/25 00:16:44;;;;;;;17.65;5.32;;;;;;;5.40;82.26;101376.41;6103467;19;20103;-73
2023/04/25 00:18:51;;;;;;;12.13;5.22;;;;;;;5.37;82.22;101377.28;6106829;19;20039;-73
2023/04/25 00:20:56;;;;;;;13.38;4.60;;;;;;;5.34;81.78;101379.91;6107652;19;20017;-73
2023/04/25 00:23:01;;;;;;;23.83;5.07;;;;;;;5.33;82.09;101385.16;6107912;19;20014;-73
2023/04/25 00:25:10;;;;;;;12.43;4.47;;;;;;;5.33;81.76;101377.34;6111544;19;20479;-73
2023/04/25 00:27:15;;;;;;;15.38;4.75;;;;;;;5.28;81.94;101374.75;6108606;19;20010;-73
2023/04/25 00:29:21;;;;;;;15.63;4.63;;;;;;;5.18;82.44;101373.97;6108557;19;20006;-73
2023/04/25 00:31:27;;;;;;;18.45;7.85;;;;;;;5.17;82.06;101377.47;6107908;19;20013;-73
2023/04/25 00:33:32;;;;;;;25.73;6.65;;;;;;;5.16;82.19;101378.38;6108512;19;20392;-72
2023/04/25 00:35:37;;;;;;;16.88;5.07;;;;;;;5.10;82.39;101378.41;6107335;19;20006;-72
2023/04/25 00:37:42;;;;;;;18.50;4.65;;;;;;;5.07;82.56;101373.22;6106748;19;20424;-71
2023/04/25 00:39:47;;;;;;;13.80;3.95;;;;;;;5.01;82.60;101379.34;6107715;19;20007;-75
2023/04/25 00:41:56;;;;;;;13.57;4.32;;;;;;;4.97;82.92;101379.38;6105173;19;20015;-72
2023/04/25 00:44:04;;;;;;;13.48;4.93;;;;;;;4.91;82.81;101379.47;6103676;19;19998;-73
2023/04/25 00:46:08;;;;;;;14.18;4.13;;;;;;;4.90;82.90;101377.72;6099601;19;20675;-73
2023/04/25 00:48:18;;;;;;;16.40;4.68;;;;;;;4.94;82.81;101376.81;6101927;19;20031;-70
2023/04/25 00:50:32;;;;;;;17.63;4.20;;;;;;;4.98;82.64;101383.75;6090862;19;20459;-69
2023/04/25 00:52:45;;;;;;;16.95;4.00;;;;;;;4.96;82.90;101395.91;6096924;19;20014;-69
2023/04/25 00:55:00;;;;;;;14.50;4.50;;;;;;;4.94;83.39;101397.66;6098238;19;20006;-70
2023/04/25 00:57:08;;;;;;;13.02;4.18;;;;;;;4.95;83.32;101389.84;6077769;19;20371;-72
2023/04/25 00:59:28;;;;;;;18.27;4.97;;;;;;;4.97;83.05;101395.88;6099151;19;20295;-69
2023/04/25 01:01:34;;;;;;;9.88;3.72;;;;;;;5.00;83.19;101397.59;6100844;19;20509;-69
2023/04/25 01:03:43;;;;;;;14.23;4.10;;;;;;;5.03;83.06;101400.19;6094874;19;20404;-69
2023/04/25 01:05:50;;;;;;;19.45;4.13;;;;;;;5.12;82.38;101404.47;6080186;19;20007;-70
2023/04/25 01:07:59;;;;;;;16.58;4.53;;;;;;;5.12;82.48;101401.84;6098155;19;20011;-69
2023/04/25 01:10:22;;;;;;;;;;;;;;;;;;;;;
2023/04/25 01:12:34;;;;;;;18.48;5.35;;;;;;;5.18;81.66;101402.63;6100526;19;20033;-70
2023/04/25 01:14:46;;;;;;;10.93;3.65;;;;;;;5.13;81.94;101401.81;6097948;19;20508;-70
2023/04/25 01:16:58;;;;;;;16.65;4.68;;;;;;;5.17;81.14;101400.06;6101152;19;21296;-69
2023/04/25 01:19:11;;;;;;;13.48;4.18;;;;;;;5.12;81.50;101400.09;6096565;19;20010;-70
2023/04/25 01:21:30;;;;;;;12.93;3.55;;;;;;;5.11;81.82;101402.72;6080658;19;20363;-70
2023/04/25 01:23:38;;;;;;;16.35;3.60;;;;;;;5.03;81.64;101410.63;6097415;19;20011;-73
2023/04/25 01:25:43;;;;;;;9.63;3.80;;;;;;;5.02;81.36;101403.66;6100804;19;20011;-72
2023/04/25 01:27:48;;;;;;;14.38;3.95;;;;;;;5.05;80.27;101406.22;6103356;19;20078;-72
2023/04/25 01:29:54;;;;;;;12.75;4.03;;;;;;;5.00;80.40;101411.50;6103492;19;20010;-72
2023/04/25 01:32:00;;;;;;;13.30;3.92;;;;;;;4.95;80.95;101415.88;6100269;19;20467;-74
2023/04/25 01:34:05;;;;;;;15.38;4.80;;;;;;;4.99;79.91;101414.09;6099397;19;20037;-74
2023/04/25 01:36:11;;;;;;;12.93;3.83;;;;;;;5.00;79.21;101415.81;6102262;19;20435;-74
2023/04/25 01:38:19;;;;;;;20.80;6.05;;;;;;;4.98;78.98;101415.84;6100326;19;20085;-73
2023/04/25 01:40:24;;;;;;;13.30;4.35;;;;;;;4.96;78.67;101408.94;6100177;19;20003;-73
2023/04/25 01:42:30;;;;;;;17.17;3.92;;;;;;;4.97;77.62;101414.09;6098559;19;20006;-73
2023/04/25 01:44:34;;;;;;;11.85;3.60;;;;;;;4.98;77.62;101412.41;6103731;19;20007;-73
2023/04/25 01:46:40;;;;;;;7.82;3.28;;;;;;;4.91;78.34;101415.91;6103023;19;20420;-74
2023/04/25 01:48:45;;;;;;;20.23;4.10;;;;;;;4.90;77.96;101414.16;6101879;19;20070;-74
2023/04/25 01:50:51;;;;;;;12.52;3.95;;;;;;;4.87;78.11;101414.19;6102998;19;20367;-74
2023/04/25 01:52:56;;;;;;;10.52;3.53;;;;;;;4.86;77.68;101421.16;6100257;19;20013;-72
2023/04/25 01:55:05;;;;;;;18.88;3.72;;;;;;;4.87;77.71;101424.63;6104907;19;20029;-73
2023/04/25 01:57:10;;;;;;;13.73;4.22;;;;;;;4.86;77.98;101423.75;6103779;19;20555;-73
2023/04/25 01:59:15;;;;;;;8.85;3.88;;;;;;;4.85;78.04;101414.22;6103528;19;20007;-73
2023/04/25 02:01:23;;;;;;;11.65;3.30;;;;;;;4.86;78.10;101412.47;6099484;19;20006;-73
2023/04/25 02:03:28;;;;;;;11.75;3.60;;;;;;;4.84;78.72;101429.00;6100637;19;20009;-72
2023/04/25 02:05:38;;;;;;;8.05;2.95;;;;;;;4.84;78.92;101423.78;6099622;19;20002;-72
2023/04/25 02:07:43;;;;;;;9.45;3.97;;;;;;;4.86;78.63;101421.16;6101699;19;20039;-73
2023/04/25 02:09:48;;;;;;;9.65;3.42;;;;;;;4.87;78.27;101422.91;6098705;19;20038;-73
2023/04/25 02:11:55;;;;;;;12.95;4.18;;;;;;;4.89;78.20;101425.47;6095726;19;20262;-73
2023/04/25 02:14:01;;;;;;;11.55;3.67;;;;;;;4.88;78.74;101421.16;6099751;19;20014;-73
2023/04/25 02:16:07;;;;;;;11.05;3.70;;;;;;;4.93;78.11;101427.19;6095684;19;20060;-73
2023/04/25 02:18:13;;;;;;;10.05;3.17;;;;;;;4.93;78.95;101427.19;6087710;19;20010;-74
2023/04/25 02:20:19;;;;;;;13.23;4.15;;;;;;;4.96;78.78;101430.63;6101388;19;20017;-73
2023/04/25 02:22:24;;;;;;;9.77;3.60;;;;;;;5.13;77.29;101446.09;6101010;19;20739;-73
2023/04/25 02:24:29;;;;;;;11.15;2.78;;;;;;;5.19;77.60;101453.03;6097766;19;20010;-73
2023/04/25 02:26:36;;;;;;;9.30;2.90;;;;;;;5.20;79.19;101434.75;6102590;19;20817;-74
2023/04/25 02:28:44;;;;;;;14.45;3.53;;;;;;;5.19;76.89;101437.41;6097548;19;20034;-73
2023/04/25 02:30:49;;;;;;;6.82;3.05;;;;;;;5.16;78.30;101429.59;6101366;19;20014;-74
2023/04/25 02:32:54;;;;;;;7.40;2.92;;;;;;;5.15;79.39;101431.34;6098002;19;20013;-73
2023/04/25 02:35:03;;;;;;;7.75;3.28;;;;;;;5.13;78.60;101429.63;6099116;19;20145;-73
2023/04/25 02:37:08;;;;;;;8.95;2.63;;;;;;;5.09;79.54;101431.41;6101459;19;20011;-74
2023/04/25 02:39:13;;;;;;;6.82;3.20;;;;;;;5.10;79.44;101438.31;6101229;19;20007;-74
2023/04/25 02:41:18;;;;;;;8.13;3.67;;;;;;;5.09;80.09;101436.59;6100684;19;20014;-73
2023/04/25 02:43:23;;;;;;;12.75;3.33;;;;;;;5.12;80.12;101435.72;6101975;19;20020;-74
2023/04/25 02:45:30;;;;;;;7.88;2.75;;;;;;;5.14;81.18;101432.22;6102890;19;20491;-73
2023/04/25 02:47:36;;;;;;;15.07;3.92;;;;;;;5.14;81.62;101433.97;6103290;19;20046;-73
2023/04/25 02:49:41;;;;;;;8.00;2.78;;;;;;;5.13;83.13;101438.28;6108076;19;20438;-73
2023/04/25 02:51:49;;;;;;;13.25;3.47;;;;;;;5.11;82.47;101436.56;6108078;19;20396;-73
2023/04/25 02:53:54;;;;;;;7.38;2.78;;;;;;;5.10;82.95;101427.91;6100600;19;20003;-69
2023/04/25 02:56:04;;;;;;;5.32;2.35;;;;;;;5.11;82.13;101433.97;6104976;19;20015;-68
2023/04/25 02:58:13;;;;;;;9.45;3.15;;;;;;;5.11;82.88;101437.47;6104857;19;20431;-69
2023/04/25 03:00:23;;;;;;;7.30;2.83;;;;;;;5.16;81.98;101432.19;6105435;19;20017;-69
2023/04/25 03:02:35;;;;;;;12.40;3.85;;;;;;;5.21;82.22;101431.31;6099401;19;20297;-70
2023/04/25 03:04:40;;;;;;;8.68;3.13;;;;;;;5.31;80.23;101437.28;6102393;19;20014;-69
2023/04/25 03:06:45;;;;;;;15.80;3.35;;;;;;;5.39;79.65;101426.78;6105371;19;20003;-68
2023/04/25 03:08:52;;;;;;;15.13;3.50;;;;;;;5.43;77.97;101431.94;6103437;19;20010;-69
2023/04/25 03:10:58;;;;;;;10.02;3.05;;;;;;;5.44;77.52;101433.66;6106343;19;20384;-69
2023/04/25 03:13:03;;;;;;;15.88;2.70;;;;;;;5.45;76.77;101430.19;6103934;19;20086;-70
2023/04/25 03:15:10;;;;;;;6.40;2.70;;;;;;;5.44;76.62;101430.19;6101590;19;20016;-70
2023/04/25 03:17:15;;;;;;;5.93;2.70;;;;;;;5.46;75.43;101428.44;6101254;19;20790;-68
2023/04/25 03:19:25;;;;;;;8.32;3.38;;;;;;;5.49;75.66;101428.41;6102018;19;20014;-68
2023/04/25 03:21:31;;;;;;;7.80;3.08;;;;;;;5.48;76.15;101439.72;6103185;19;20011;-68
2023/04/25 03:23:37;;;;;;;12.68;3.28;;;;;;;5.48;75.14;101440.59;6100389;19;20005;-69
2023/04/25 03:25:45;;;;;;;7.63;2.88;;;;;;;5.46;76.57;101437.13;6101812;19;20002;-69
2023/04/25 03:27:52;;;;;;;12.02;2.75;;;;;;;5.46;75.61;101434.53;6104707;19;20030;-69
2023/04/25 03:30:02;;;;;;;9.65;2.97;;;;;;;5.45;76.68;101435.41;6102585;19;20038;-69
2023/04/25 03:32:08;;;;;;;4.15;2.45;;;;;;;5.43;77.06;101441.53;6104023;19;20094;-68
2023/04/25 03:34:14;;;;;;;8.55;3.15;;;;;;;5.48;76.41;101434.53;6103516;19;20031;-69
2023/04/25 03:36:24;;;;;;;7.07;3.28;;;;;;;5.46;76.61;101437.13;6105661;19;20081;-71
2023/04/25 03:38:31;;;;;;;13.45;3.38;;;;;;;5.55;77.29;101443.13;6085764;19;20014;-69
2023/04/25 03:40:36;;;;;;;9.35;3.58;;;;;;;5.57;76.96;101443.97;6081796;19;20475;-70
2023/04/25 03:42:42;;;;;;;11.50;3.00;;;;;;;5.58;76.76;101440.47;6102822;19;20138;-70
2023/04/25 03:44:49;;;;;;;7.43;3.47;;;;;;;5.61;77.28;101446.56;6100929;19;20010;-70
2023/04/25 03:46:57;;;;;;;9.65;2.65;;;;;;;5.64;77.41;101456.09;6100524;19;20007;-69
2023/04/25 03:49:05;;;;;;;8.65;3.17;;;;;;;5.65;77.03;101453.44;6098929;19;20020;-70
2023/04/25 03:51:10;;;;;;;6.60;2.58;;;;;;;5.63;77.65;101452.59;6101495;19;20376;-70
2023/04/25 03:53:23;;;;;;;10.38;3.10;;;;;;;5.64;77.69;101451.72;6080600;19;20039;-70
2023/04/25 03:55:29;;;;;;;13.45;2.53;;;;;;;5.64;77.24;101448.25;6103534;19;20525;-71
2023/04/25 03:57:35;;;;;;;7.90;3.22;;;;;;;5.67;77.25;101448.22;6094989;19;20002;-70
2023/04/25 03:59:46;;;;;;;6.70;3.03;;;;;;;5.65;76.91;101457.81;6102615;19;20006;-70
2023/04/25 04:01:53;;;;;;;11.55;3.33;;;;;;;5.65;76.99;101460.41;6101867;19;20006;-70
2023/04/25 04:03:59;;;;;;;7.45;2.67;;;;;;;5.68;76.97;101460.38;6101743;19;20937;-70
2023/04/25 04:06:10;;;;;;;8.98;2.75;;;;;;;5.70;76.43;101467.31;6099080;19;20011;-70
2023/04/25 04:08:25;;;;;;;13.68;2.92;;;;;;;5.68;76.63;101468.19;6098356;19;20042;-70
2023/04/25 04:10:35;;;;;;;15.65;3.85;;;;;;;5.70;76.30;101467.31;6099065;19;20026;-71
2023/04/25 04:12:42;;;;;;;11.77;2.95;;;;;;;5.70;76.72;101472.50;6099000;19;20082;-70
2023/04/25 04:14:53;;;;;;;11.95;3.20;;;;;;;5.67;76.73;101474.31;6098960;19;20077;-70
2023/04/25 04:17:00;;;;;;;8.27;2.70;;;;;;;5.64;77.12;101475.19;6099604;19;19999;-70
2023/04/25 04:19:10;;;;;;;14.20;3.60;;;;;;;5.63;77.73;101465.63;6097075;19;20025;-70
2023/04/25 04:21:27;;;;;;;7.10;3.05;;;;;;;5.64;77.09;101477.81;6099644;19;20018;-71
2023/04/25 04:23:37;;;;;;;7.35;2.60;;;;;;;5.62;76.63;101471.72;6100869;19;20054;-71
2023/04/25 04:25:49;;;;;;;8.02;2.72;;;;;;;5.63;77.25;101475.19;6089160;19;20002;-71
2023/04/25 04:28:10;;;;;;;8.82;2.83;;;;;;;5.61;77.05;101471.72;6104126;19;20451;-71
2023/04/25 04:30:25;;;;;;;8.55;2.78;;;;;;;5.62;76.61;101474.34;6045495;19;20060;-71
2023/04/25 04:32:39;;;;;;;12.57;2.75;;;;;;;5.63;75.98;101473.44;6098592;19;20301;-71
2023/04/25 04:34:55;;;;;;;10.43;2.80;;;;;;;5.62;76.51;101474.34;6086258;19;20010;-71
2023/04/25 04:37:18;;;;;;;10.23;2.83;;;;;;;5.58;76.76;101477.88;6099662;19;20007;-71
2023/04/25 04:39:28;;;;;;;10.38;3.90;;;;;;;5.59;75.87;101482.19;6103145;19;20002;-71
2023/04/25 04:41:38;;;;;;;6.63;2.53;;;;;;;5.57;75.69;101485.69;6095423;19;20478;-71
2023/04/25 04:44:00;;;;;;;10.30;3.15;;;;;;;5.54;75.85;101478.78;6079458;19;20013;-71
2023/04/25 04:46:06;;;;;;;10.15;3.40;;;;;;;5.56;74.33;101478.78;6102408;19;20014;-73
2023/04/25 04:48:13;;;;;;;6.88;2.15;;;;;;;5.59;74.10;101479.59;6100928;19;20075;-74
2023/04/25 04:50:19;;;;;;;11.07;2.50;;;;;;;5.65;73.85;101497.78;6099621;19;20003;-73
2023/04/25 04:52:24;;;;;;;7.47;2.60;;;;;;;5.66;73.41;101491.69;6099691;19;20054;-73
2023/04/25 04:54:32;;;;;;;6.80;2.63;;;;;;;5.64;74.46;101500.41;6105468;19;20079;-73
2023/04/25 04:56:37;;;;;;;9.05;3.17;;;;;;;5.73;74.24;101497.69;6105175;19;20010;-73
2023/04/25 04:58:42;;;;;;;12.38;2.78;;;;;;;5.76;74.83;101509.84;6105499;19;20486;-73
2023/04/25 05:00:48;;;;;;;8.60;2.72;;;;;;;5.78;75.03;101515.91;6100074;19;20010;-74
2023/04/25 05:02:54;;;;;;;9.40;3.08;;;;;;;5.78;75.88;101508.09;6100945;19;20010;-73
2023/04/25 05:04:59;;;;;;;10.90;2.75;;;;;;;5.80;77.08;101515.03;6099045;19;20062;-74
2023/04/25 05:07:04;;;;;;;8.25;2.22;;;;;;;5.79;78.48;101522.84;6102433;19;20556;-74
2023/04/25 05:09:09;;;;;;;7.70;2.53;;;;;;;5.81;79.35;101523.72;6102439;19;20014;-73
2023/04/25 05:11:16;;;;;;;11.85;2.60;;;;;;;5.77;79.50;101522.88;6103238;19;20046;-73
2023/04/25 05:13:22;;;;;;;8.45;3.85;;;;;;;5.80;79.61;101530.66;6102897;19;20009;-73
2023/04/25 05:15:28;;;;;;;8.65;2.50;;;;;;;5.79;80.01;101528.06;6102194;19;20326;-74
2023/04/25 05:17:33;;;;;;;7.20;2.85;;;;;;;5.73;80.64;101529.84;6103072;19;20014;-73
2023/04/25 05:19:39;;;;;;;8.07;2.95;;;;;;;5.74;80.56;101533.34;6100288;19;20691;-73
2023/04/25 05:21:44;;;;;;;9.15;3.25;;;;;;;5.82;80.49;101541.97;6097528;19;20078;-73
2023/04/25 05:23:49;;;;;;;6.60;2.58;;;;;;;5.85;80.50;101548.88;6104005;19;20007;-74
2023/04/25 05:25:54;;;;;;;5.85;2.55;;;;;;;5.89;80.02;101556.66;6098066;19;20041;-74
2023/04/25 05:28:02;;;;;;;9.85;2.92;;;;;;;5.81;80.51;101555.88;6099609;19;20022;-74
2023/04/25 05:30:08;;;;;;;6.50;2.95;;;;;;;5.76;78.78;101562.00;6099195;19;20526;-73
2023/04/25 05:32:13;;;;;;;7.82;2.40;;;;;;;5.75;78.68;101562.91;6099949;19;20037;-73
2023/04/25 05:34:21;;;;;;;11.48;3.10;;;;;;;5.71;78.11;101562.03;6095275;19;20728;-71
2023/04/25 05:36:32;;;;;;;7.85;2.53;;;;;;;5.70;77.85;101568.16;6098500;19;20015;-71
2023/04/25 05:38:48;;;;;;;12.10;3.22;;;;;;;5.76;78.27;101575.03;6098424;19;20015;-71
2023/04/25 05:40:54;;;;;;;10.93;2.60;;;;;;;5.80;76.42;101574.16;6099528;19;20535;-77
2023/04/25 05:43:04;;;;;;;2.42;2.20;;;;;;;5.69;76.56;101582.94;6100659;19;20466;-73
2023/04/25 05:45:13;;;;;;;5.38;2.55;;;;;;;5.71;76.88;101581.19;6097651;19;20542;-73
2023/04/25 05:47:26;;;;;;;7.15;2.45;;;;;;;5.74;75.54;101582.91;6098663;19;20018;-73
2023/04/25 05:49:43;;;;;;;9.95;2.95;;;;;;;5.68;75.31;101585.53;6080185;19;20013;-73
2023/04/25 05:52:30;;;;;;;4.85;2.22;;;;;;;5.72;74.56;101588.13;6047933;19;20643;-74
2023/04/25 05:54:59;;;;;;;5.90;2.10;;;;;;;5.67;75.53;101589.91;6084927;19;20471;-73
2023/04/25 05:59:57;;;;;;;8.32;2.72;;;;;;;5.77;73.75;101605.47;6064851;19;20478;-73
2023/04/25 06:02:33;;;;;;;7.97;1.98;;;;;;;5.64;72.36;101610.78;6064985;19;20046;-73
2023/04/25 06:08:00;;;;;;;3.83;1.90;;;;;;;5.85;73.73;101611.50;6076657;19;20026;-72
2023/04/25 06:10:18;;;;;;;3.97;1.90;;;;;;;5.81;74.68;101613.25;6076463;19;20042;-74
2023/04/25 06:12:26;;;;;;;4.97;2.10;;;;;;;5.67;74.67;101615.09;6099391;19;20638;-71
2023/04/25 06:14:50;;;;;;;2.17;1.83;;;;;;;5.63;76.54;101611.63;6100229;19;20007;-76
2023/04/25 06:17:06;;;;;;;4.43;2.15;;;;;;;5.67;78.01;101615.97;6094279;19;20359;-74
2023/04/25 06:19:19;;;;;;;6.05;2.22;;;;;;;5.74;78.81;101619.41;6078273;19;20034;-73
2023/04/25 06:21:39;;;;;;;4.15;2.47;;;;;;;5.71;80.03;101620.28;6080054;19;20388;-75
2023/04/25 06:23:44;;;;;;;6.88;2.35;;;;;;;5.72;79.59;101619.41;6099578;19;20009;-76
2023/04/25 06:25:50;;;;;;;4.05;2.03;;;;;;;5.70;79.63;101623.75;6084729;19;20426;-74
2023/04/25 06:27:55;;;;;;;6.05;2.00;;;;;;;5.71;79.55;101627.22;6099542;19;20041;-75
2023/04/25 06:30:00;;;;;;;3.13;1.83;;;;;;;5.73;78.29;101625.47;6111330;19;20332;-74
2023/04/25 06:32:09;;;;;;;4.82;2.00;;;;;;;5.77;78.76;101632.41;6114457;19;20033;-75
2023/04/25 06:34:15;;;;;;;4.65;2.00;;;;;;;5.68;78.86;101632.47;6114855;19;20107;-74
2023/04/25 06:36:24;;;;;;;6.10;2.05;;;;;;;5.71;78.94;101630.72;6109568;19;20090;-74
2023/04/25 06:38:29;;;;;;;5.18;2.03;;;;;;;5.79;78.53;101637.59;6108390;19;20502;-74
2023/04/25 06:40:35;;;;;;;3.85;1.80;;;;;;;5.86;78.79;101634.94;6109753;19;20028;-73
2023/04/25 06:42:44;;;;;;;3.97;1.92;;;;;;;5.92;78.04;101639.22;6108700;19;20042;-73
2023/04/25 06:44:50;;;;;;;4.20;2.22;;;;;;;5.99;78.38;101640.94;6109064;19;20138;-73
2023/04/25 06:46:56;;;;;;;6.07;2.28;;;;;;;6.01;77.74;101633.97;6108380;19;19999;-73
2023/04/25 06:49:13;;;;;;;5.85;2.13;;;;;;;6.09;77.46;101641.75;6105015;19;20018;-74
2023/04/25 06:53:59;;;;;;;5.70;2.63;;;;;;;6.35;76.94;101649.31;6075245;19;20015;-72
2023/04/25 06:56:11;;;;;;;11.70;2.72;;;;;;;6.46;77.13;101646.59;6103949;19;20015;-72
2023/04/25 06:58:26;;;;;;;7.40;2.35;;;;;;;6.60;76.33;101649.91;6101465;19;20015;-73
2023/04/25 07:00:34;;;;;;;6.05;2.38;;;;;;;6.66;76.25;101648.97;6106399;19;20566;-73
2023/04/25 07:02:52;;;;;;;3.38;2.00;;;;;;;6.76;74.67;101648.00;6105803;19;20010;-72
2023/04/25 07:05:03;;;;;;;7.30;2.13;;;;;;;6.73;74.16;101650.66;6106007;19;20015;-72
2023/04/25 07:07:12;;;;;;;8.27;2.70;;;;;;;6.85;75.09;101660.09;6105717;19;20045;-73
2023/04/25 07:09:25;;;;;;;6.15;2.10;;;;;;;6.90;73.86;101653.06;6105025;19;20002;-73
2023/04/25 07:11:30;;;;;;;7.38;2.33;;;;;;;6.91;72.26;101660.03;6106070;19;20007;-72
2023/04/25 07:13:39;;;;;;;9.05;2.60;;;;;;;7.15;73.23;101658.84;6085228;19;20014;-73
2023/04/25 07:15:49;;;;;;;6.85;2.75;;;;;;;7.29;72.87;101651.66;6106764;19;20503;-72
2023/04/25 07:18:08;;;;;;;6.18;2.30;;;;;;;7.40;72.91;101655.03;6083934;19;20028;-72
2023/04/25 07:20:23;;;;;;;11.43;2.83;;;;;;;7.70;72.54;101658.91;6099409;19;20031;-72
2023/04/25 07:22:35;;;;;;;10.93;3.67;;;;;;;7.94;70.15;101653.31;6104477;19;20570;-72
2023/04/25 07:24:41;;;;;;;5.50;2.08;;;;;;;8.74;68.85;101656.25;6096758;19;20038;-72
2023/04/25 07:26:46;;;;;;;4.10;2.28;;;;;;;8.83;67.18;101667.47;6106862;19;20017;-72
2023/04/25 07:28:51;;;;;;;8.68;2.28;;;;;;;9.54;66.46;101672.91;6104531;19;20010;-72
2023/04/25 07:30:57;;;;;;;9.98;2.42;;;;;;;10.22;66.63;101664.28;6100839;19;20597;-73
2023/04/25 07:33:03;;;;;;;9.60;2.65;;;;;;;10.02;66.95;101672.63;6103630;19;20014;-72
2023/04/25 07:35:09;;;;;;;6.35;2.45;;;;;;;9.12;64.67;101670.34;6101178;19;20026;-73
2023/04/25 07:37:22;;;;;;;6.80;2.20;;;;;;;8.53;65.25;101668.03;6105554;19;20018;-73
2023/04/25 07:39:30;;;;;;;6.30;2.47;;;;;;;8.29;67.68;101668.41;6103902;19;20006;-72
2023/04/25 07:41:48;;;;;;;6.80;1.88;;;;;;;8.06;67.31;101674.06;6106721;19;20014;-73
2023/04/25 07:43:53;;;;;;;8.55;2.60;;;;;;;8.32;64.76;101674.47;6101993;19;20597;-72
2023/04/25 07:45:59;;;;;;;8.70;1.58;;;;;;;8.86;63.13;101675.25;6054338;19;20028;-73
2023/04/25 07:48:05;;;;;;;9.20;2.33;;;;;;;8.80;62.31;101668.38;6104715;19;20050;-71
2023/04/25 07:50:20;;;;;;;5.22;1.77;;;;;;;9.32;61.13;101674.28;6103964;19;20015;-72
2023/04/25 07:52:28;;;;;;;5.20;1.92;;;;;;;9.54;58.75;101667.66;6101609;19;20209;-72
2023/04/25 07:54:33;;;;;;;7.05;1.90;;;;;;;10.44;58.75;101669.84;6105942;19;20011;-72
2023/04/25 07:56:41;;;;;;;8.82;2.92;;;;;;;10.94;56.55;101669.34;6106803;19;20463;-72
2023/04/25 07:59:00;;;;;;;7.88;2.38;;;;;;;11.46;55.03;101673.06;6101625;19;20011;-73
2023/04/25 08:01:07;;;;;;;5.00;1.40;;;;;;;11.48;52.08;101668.63;6104995;19;20053;-73
2023/04/25 08:03:12;;;;;;;7.35;1.90;;;;;;;11.02;54.23;101674.41;6092618;19;20003;-73
2023/04/25 08:05:20;;;;;;;5.93;2.20;;;;;;;10.36;54.89;101684.94;6097796;19;20011;-72
2023/04/25 08:07:30;;;;;;;10.05;2.50;;;;;;;9.68;56.15;101686.56;6102067;19;20483;-74
2023/04/25 08:09:36;;;;;;;7.78;1.80;;;;;;;9.65;55.71;101697.16;6099902;19;20424;-72
2023/04/25 08:11:45;;;;;;;5.85;1.88;;;;;;;9.90;55.13;101704.47;6102829;19;20708;-72
2023/04/25 08:13:53;;;;;;;11.80;2.47;;;;;;;8.80;57.55;101712.94;6101212;19;20022;-72
2023/04/25 08:16:10;;;;;;;11.07;2.28;;;;;;;8.55;59.69;101718.59;6100942;19;20010;-74
2023/04/25 08:18:27;;;;;;;14.05;3.00;;;;;;;8.45;60.27;101724.94;6091706;19;20085;-74
2023/04/25 08:20:47;;;;;;;4.47;1.80;;;;;;;7.88;58.68;101725.81;6027794;19;20021;-74
2023/04/25 08:22:59;;;;;;;4.15;1.88;;;;;;;7.91;59.22;101731.00;6103989;19;20434;-73
2023/04/25 08:25:08;;;;;;;6.90;1.88;;;;;;;8.19;58.76;101735.81;6103079;19;20014;-73
2023/04/25 08:27:23;;;;;;;11.48;2.22;;;;;;;8.65;58.67;101737.66;6103225;19;20011;-73
2023/04/25 08:29:44;;;;;;;9.35;2.38;;;;;;;9.00;56.12;101733.50;6044473;19;20383;-73
2023/04/25 08:31:57;;;;;;;5.80;2.00;;;;;;;9.59;54.82;101738.41;6078636;19;21455;-73
2023/04/25 08:34:04;;;;;;;8.15;2.25;;;;;;;9.93;54.04;101740.28;6104006;19;20025;-75
2023/04/25 08:36:33;;;;;;;8.77;2.05;;;;;;;9.55;53.80;101731.50;6097992;19;20458;-73
2023/04/25 08:39:23;;;;;;;7.40;2.05;;;;;;;9.93;51.85;101745.53;6034067;19;20039;-73
2023/04/25 08:42:04;;;;;;;5.88;2.13;;;;;;;9.40;55.16;101758.91;6062797;19;20033;-73
2023/04/25 08:44:26;;;;;;;5.05;1.60;;;;;;;8.53;60.24;101754.47;6070235;19;20003;-73
2023/04/25 08:46:34;;;;;;;9.68;2.67;;;;;;;8.20;60.88;101757.63;6085268;19;20661;-73
2023/04/25 08:48:45;;;;;;;4.85;1.90;;;;;;;8.14;61.74;101766.44;6100710;19;20379;-73
2023/04/25 08:50:54;;;;;;;6.93;2.47;;;;;;;8.33;62.59;101765.25;6103300;19;20048;-73
2023/04/25 08:53:06;;;;;;;2.95;1.80;;;;;;;9.02;61.09;101768.44;6101076;19;20010;-74
2023/04/25 08:55:16;;;;;;;13.10;2.10;;;;;;;9.08;59.84;101772.69;6103763;19;20011;-74
2023/04/25 08:57:25;;;;;;;6.60;1.90;;;;;;;8.84;60.41;101781.88;6102082;19;20014;-73
2023/04/25 08:59:31;;;;;;;5.55;2.47;;;;;;;8.57;58.92;101778.84;6102809;19;20078;-74
2023/04/25 09:01:36;;;;;;;4.72;1.80;;;;;;;9.04;59.31;101778.91;6099540;19;20449;-76
2023/04/25 09:03:50;;;;;;;5.78;2.65;;;;;;;9.48;57.36;101778.00;6105577;19;20392;-75
2023/04/25 09:05:57;;;;;;;8.98;2.03;;;;;;;10.37;54.95;101783.88;6104026;19;20042;-75
2023/04/25 09:08:03;;;;;;;6.53;1.83;;;;;;;9.96;53.88;101790.97;6100008;19;20007;-77
2023/04/25 09:10:09;;;;;;;6.00;2.22;;;;;;;9.99;52.29;101787.41;6100441;19;20015;-73
2023/04/25 09:12:16;;;;;;;11.55;1.75;;;;;;;10.16;53.62;101781.75;6103041;19;20554;-73
2023/04/25 09:14:30;;;;;;;7.18;2.08;;;;;;;9.21;51.84;101797.78;6102442;19;20421;-72
2023/04/25 09:16:35;;;;;;;4.50;1.50;;;;;;;9.28;52.55;101802.00;6103839;19;20021;-77
2023/04/25 09:18:43;;;;;;;3.65;1.55;;;;;;;10.07;51.08;101802.06;6102756;19;20031;-75
2023/04/25 09:20:52;;;;;;;5.32;1.58;;;;;;;9.93;51.58;101813.81;6102291;19;20006;-72
2023/04/25 09:23:07;;;;;;;4.53;1.60;;;;;;;10.30;51.52;101808.59;6103826;19;20011;-74
2023/04/25 09:25:14;;;;;;;5.63;1.50;;;;;;;10.57;52.15;101809.69;6103348;19;20542;-75
2023/04/25 09:27:26;;;;;;;3.90;1.70;;;;;;;11.42;50.97;101811.78;6103202;19;20039;-74
2023/04/25 09:29:33;;;;;;;4.80;1.40;;;;;;;10.11;52.66;101821.28;6103004;19;20345;-74
2023/04/25 09:31:38;;;;;;;6.88;2.35;;;;;;;9.04;54.15;101824.31;6096945;19;20023;-75
2023/04/25 09:33:43;;;;;;;6.95;2.20;;;;;;;9.74;55.08;101818.56;6101366;19;20467;-75
2023/04/25 09:35:55;;;;;;;5.30;1.58;;;;;;;9.84;52.81;101820.94;6105071;19;20006;-74
2023/04/25 09:38:00;;;;;;;4.45;1.73;;;;;;;9.11;54.41;101828.56;6101702;19;20015;-77
2023/04/25 09:40:10;;;;;;;3.60;2.00;;;;;;;8.89;57.03;101832.47;6108286;19;20014;-75
2023/04/25 09:42:16;;;;;;;5.07;1.77;;;;;;;8.88;53.69;101836.84;6106851;19;20025;-74
2023/04/25 09:44:28;;;;;;;4.90;1.50;;;;;;;10.00;52.06;101818.00;6107233;19;20012;-75
2023/04/25 09:46:43;;;;;;;7.38;1.63;;;;;;;9.96;51.19;101826.84;6107995;19;20011;-74
2023/04/25 09:48:53;;;;;;;4.53;1.77;;;;;;;9.32;51.55;101836.91;6106569;19;20019;-75
2023/04/25 09:51:09;;;;;;;4.68;1.60;;;;;;;10.03;51.54;101836.31;6102071;19;20013;-76
2023/04/25 09:53:14;;;;;;;6.32;2.15;;;;;;;10.60;51.06;101830.63;6100227;19;20014;-75
2023/04/25 09:55:23;;;;;;;5.95;1.63;;;;;;;10.88;50.54;101827.31;6108350;19;20042;-73
2023/04/25 09:57:28;;;;;;;9.55;2.17;;;;;;;10.84;50.17;101829.13;6105192;19;20151;-75
2023/04/25 09:59:41;;;;;;;4.95;1.90;;;;;;;10.89;52.17;101832.50;6107576;19;20038;-73
2023/04/25 10:01:46;;;;;;;6.43;1.77;;;;;;;10.55;53.05;101837.75;6105171;19;20007;-73
2023/04/25 10:03:54;;;;;;;6.18;1.73;;;;;;;10.20;53.95;101843.81;6103999;19;20648;-74
2023/04/25 10:06:02;;;;;;;7.65;1.65;;;;;;;9.15;54.68;101858.22;6105422;19;20094;-74
2023/04/25 10:08:09;;;;;;;7.10;2.42;;;;;;;9.14;56.40;101852.09;6103799;19;20015;-77
2023/04/25 10:10:16;;;;;;;5.30;2.40;;;;;;;9.19;57.45;101852.03;6105690;19;20021;-77
2023/04/25 10:12:24;;;;;;;5.93;1.63;;;;;;;9.46;58.82;101853.25;6102238;19;20086;-75
2023/04/25 10:14:29;;;;;;;4.55;1.92;;;;;;;9.51;60.03;101863.66;6103772;19;20344;-74
2023/04/25 10:16:38;;;;;;;7.07;1.98;;;;;;;9.43;58.52;101861.19;6106055;19;20310;-74